createdAt,value
2023-01-13T00:01:15.871Z,8.90
2023-01-13T00:03:42.852Z,8.80
2023-01-13T00:06:14.576Z,8.80
2023-01-13T00:08:41.516Z,8.80
2023-01-13T00:11:08.611Z,8.80
2023-01-13T00:13:35.481Z,8.80
2023-01-13T00:16:06.845Z,8.80
2023-01-13T00:18:33.940Z,8.70
2023-01-13T00:21:12.811Z,8.70
2023-01-13T00:23:40.041Z,8.70
2023-01-13T00:26:11.575Z,8.70
2023-01-13T00:28:38.330Z,8.70
2023-01-13T00:31:12.283Z,8.70
2023-01-13T00:33:38.999Z,8.70
2023-01-13T00:36:06.431Z,8.70
2023-01-13T00:38:33.823Z,8.70
2023-01-13T00:41:08.031Z,8.70
2023-01-13T00:43:35.526Z,8.60
2023-01-13T00:46:02.502Z,8.60
2023-01-13T00:48:29.364Z,8.60
2023-01-13T00:51:04.149Z,8.60
2023-01-13T00:53:34.458Z,8.60
2023-01-13T00:56:02.022Z,8.60
2023-01-13T00:58:30.625Z,8.50
2023-01-13T01:01:08.561Z,8.50
2023-01-13T01:03:35.356Z,8.50
2023-01-13T01:06:07.189Z,8.50
2023-01-13T01:08:37.014Z,8.50
2023-01-13T01:11:08.025Z,8.40
2023-01-13T01:13:35.058Z,8.40
2023-01-13T01:16:06.780Z,8.40
2023-01-13T01:18:37.497Z,8.40
2023-01-13T01:21:04.429Z,8.40
2023-01-13T01:23:31.820Z,8.40
2023-01-13T01:26:02.746Z,8.30
2023-01-13T01:28:29.465Z,8.30
2023-01-13T01:30:58.365Z,8.30
2023-01-13T01:33:25.497Z,8.30
2023-01-13T01:35:53.038Z,8.30
2023-01-13T01:38:22.225Z,8.30
2023-01-13T01:40:49.161Z,8.20
2023-01-13T01:43:38.926Z,8.30
2023-01-13T01:46:05.730Z,8.30
2023-01-13T01:48:38.313Z,8.20
2023-01-13T01:51:05.106Z,8.20
2023-01-13T01:53:31.799Z,8.20
2023-01-13T01:55:58.538Z,8.20
2023-01-13T01:58:37.502Z,8.20
2023-01-13T02:01:04.621Z,8.20
2023-01-13T02:03:31.418Z,8.20
2023-01-13T02:05:58.066Z,8.10
2023-01-13T02:08:24.750Z,8.10
2023-01-13T02:10:53.659Z,8.00
2023-01-13T02:13:20.366Z,8.00
2023-01-13T02:15:52.125Z,8.10
2023-01-13T02:18:42.990Z,8.10
2023-01-13T02:21:14.957Z,8.10
2023-01-13T02:24:11.239Z,8.10
2023-01-13T02:27:05.207Z,8.10
2023-01-13T02:30:05.761Z,8.10
2023-01-13T02:32:35.455Z,8.10
2023-01-13T02:35:08.257Z,8.10
2023-01-13T02:37:37.022Z,8.00
2023-01-13T02:40:14.529Z,8.10
2023-01-13T02:43:04.204Z,8.10
2023-01-13T02:45:34.298Z,8.10
2023-01-13T02:48:01.027Z,8.10
2023-01-13T02:50:30.977Z,8.10
2023-01-13T02:52:59.792Z,8.00
2023-01-13T02:55:31.095Z,8.00
2023-01-13T02:57:59.485Z,8.00
2023-01-13T03:00:26.540Z,8.10
2023-01-13T03:02:53.318Z,8.10
2023-01-13T03:05:20.082Z,8.00
2023-01-13T03:07:49.818Z,8.00
2023-01-13T03:10:35.741Z,8.00
2023-01-13T03:13:24.100Z,8.10
2023-01-13T03:16:21.276Z,8.10
2023-01-13T03:19:09.814Z,8.10
2023-01-13T03:21:41.163Z,8.10
2023-01-13T03:24:12.712Z,8.10
2023-01-13T03:26:52.968Z,8.10
2023-01-13T03:29:58.498Z,8.10
2023-01-13T03:32:29.682Z,8.10
2023-01-13T03:35:04.936Z,8.10
2023-01-13T03:37:37.439Z,8.10
2023-01-13T03:40:17.239Z,8.10
2023-01-13T03:43:07.581Z,8.00
2023-01-13T03:45:34.910Z,8.10
2023-01-13T03:48:09.192Z,8.00
2023-01-13T03:50:49.650Z,8.10
2023-01-13T03:53:58.520Z,8.00
2023-01-13T03:57:01.875Z,8.10
2023-01-13T03:59:31.585Z,8.10
2023-01-13T04:02:21.319Z,8.10
2023-01-13T04:04:55.009Z,8.10
2023-01-13T04:07:44.348Z,8.10
2023-01-13T04:10:11.615Z,8.00
2023-01-13T04:13:00.378Z,8.00
2023-01-13T04:15:31.632Z,8.00
2023-01-13T04:18:13.544Z,8.00
2023-01-13T04:20:41.002Z,8.10
2023-01-13T04:23:07.809Z,8.10
2023-01-13T04:25:34.543Z,8.20
2023-01-13T04:28:01.435Z,8.20
2023-01-13T04:30:28.099Z,8.20
2023-01-13T04:32:55.064Z,8.20
2023-01-13T04:35:21.783Z,8.20
2023-01-13T04:37:48.564Z,8.20
2023-01-13T04:40:15.353Z,8.10
2023-01-13T04:42:44.159Z,8.10
2023-01-13T04:45:11.267Z,8.00
2023-01-13T04:47:38.206Z,8.00
2023-01-13T04:50:05.246Z,8.00
2023-01-13T04:52:31.904Z,7.90
2023-01-13T04:54:58.685Z,8.00
2023-01-13T04:57:26.031Z,7.90
2023-01-13T04:59:52.810Z,7.90
2023-01-13T05:02:22.394Z,7.90
2023-01-13T05:04:49.352Z,7.90
2023-01-13T05:07:16.472Z,7.90
2023-01-13T05:09:43.171Z,7.90
2023-01-13T05:12:28.662Z,7.90
2023-01-13T05:15:13.976Z,7.90
2023-01-13T05:17:40.758Z,8.00
2023-01-13T05:20:07.842Z,7.90
2023-01-13T05:23:06.948Z,7.90
2023-01-13T05:25:34.680Z,7.90
2023-01-13T05:28:01.430Z,7.90
2023-01-13T05:30:29.739Z,7.90
2023-01-13T05:32:56.497Z,7.90
2023-01-13T05:35:23.496Z,7.90
2023-01-13T05:37:50.276Z,7.90
2023-01-13T05:40:36.306Z,8.00
2023-01-13T05:43:21.254Z,7.90
2023-01-13T05:45:50.895Z,8.00
2023-01-13T05:48:19.058Z,8.00
2023-01-13T05:50:46.314Z,8.00
2023-01-13T05:53:13.140Z,8.00
2023-01-13T05:55:40.900Z,7.90
2023-01-13T05:58:11.448Z,7.90
2023-01-13T06:00:39.455Z,8.00
2023-01-13T06:03:07.084Z,7.90
2023-01-13T06:05:34.134Z,7.90
2023-01-13T06:08:01.558Z,7.90
2023-01-13T06:10:28.604Z,7.90
2023-01-13T06:12:55.322Z,7.90
2023-01-13T06:15:22.065Z,7.80
2023-01-13T06:17:48.814Z,7.90
2023-01-13T06:20:15.851Z,7.90
2023-01-13T06:22:43.941Z,7.90
2023-01-13T06:25:17.901Z,7.90
2023-01-13T06:27:44.589Z,7.90
2023-01-13T06:30:11.756Z,7.90
2023-01-13T06:32:43.179Z,7.90
2023-01-13T06:35:11.642Z,7.90
2023-01-13T06:37:38.293Z,7.90
2023-01-13T06:40:06.354Z,7.90
2023-01-13T06:42:53.086Z,8.00
2023-01-13T06:45:19.762Z,8.00
2023-01-13T06:47:46.622Z,8.00
2023-01-13T06:50:13.268Z,8.00
2023-01-13T06:52:39.956Z,8.10
2023-01-13T06:55:07.012Z,8.00
2023-01-13T06:57:33.665Z,8.00
2023-01-13T07:00:00.306Z,8.00
2023-01-13T07:02:28.273Z,8.10
2023-01-13T07:04:55.063Z,8.10
2023-01-13T07:07:21.713Z,8.10
2023-01-13T07:09:48.351Z,8.10
2023-01-13T07:12:15.133Z,8.10
2023-01-13T07:15:00.350Z,8.10
2023-01-13T07:17:27.067Z,8.20
2023-01-13T07:19:53.849Z,8.20
2023-01-13T07:22:20.634Z,8.30
2023-01-13T07:24:47.344Z,8.20
2023-01-13T07:27:14.080Z,8.30
2023-01-13T07:29:40.821Z,8.30
2023-01-13T07:32:08.071Z,8.30
2023-01-13T07:34:34.785Z,8.30
2023-01-13T07:37:01.676Z,8.20
2023-01-13T07:39:28.384Z,8.20
2023-01-13T07:42:13.783Z,8.10
2023-01-13T07:44:40.508Z,8.10
2023-01-13T07:47:08.586Z,8.10
2023-01-13T07:49:35.331Z,8.10
2023-01-13T07:52:02.307Z,8.10
2023-01-13T07:54:40.088Z,8.10
2023-01-13T07:57:07.605Z,8.10
2023-01-13T07:59:34.368Z,8.10
2023-01-13T08:02:01.460Z,8.10
2023-01-13T08:04:28.240Z,8.10
2023-01-13T08:06:54.914Z,8.10
2023-01-13T08:09:21.642Z,8.10
2023-01-13T08:12:08.332Z,8.10
2023-01-13T08:14:35.084Z,8.20
2023-01-13T08:17:01.759Z,8.20
2023-01-13T08:19:28.467Z,8.20
2023-01-13T08:21:55.113Z,8.20
2023-01-13T08:24:21.765Z,8.20
2023-01-13T08:26:48.474Z,8.20
2023-01-13T08:29:15.335Z,8.20
2023-01-13T08:31:42.126Z,8.10
2023-01-13T08:34:08.880Z,8.20
2023-01-13T08:36:35.594Z,8.20
2023-01-13T08:39:02.337Z,8.20
2023-01-13T08:41:47.622Z,8.20
2023-01-13T08:44:14.313Z,8.20
2023-01-13T08:46:41.857Z,8.20
2023-01-13T08:49:08.840Z,8.30
2023-01-13T08:51:35.619Z,8.30
2023-01-13T08:54:02.425Z,8.30
2023-01-13T08:56:35.343Z,8.30
2023-01-13T08:59:02.355Z,8.30
2023-01-13T09:01:29.319Z,8.30
2023-01-13T09:03:56.171Z,8.30
2023-01-13T09:06:22.947Z,8.40
2023-01-13T09:08:49.733Z,8.40
2023-01-13T09:11:39.981Z,8.40
2023-01-13T09:14:06.658Z,8.40
2023-01-13T09:16:33.491Z,8.40
2023-01-13T09:19:00.290Z,8.50
2023-01-13T09:21:27.015Z,8.50
2023-01-13T09:23:53.750Z,8.50
2023-01-13T09:26:21.369Z,8.50
2023-01-13T09:28:48.373Z,8.50
2023-01-13T09:31:15.158Z,8.60
2023-01-13T09:34:00.652Z,8.60
2023-01-13T09:36:27.478Z,8.70
2023-01-13T09:38:54.153Z,8.70
2023-01-13T09:41:44.137Z,8.70
2023-01-13T09:44:14.204Z,8.80
2023-01-13T09:46:49.324Z,8.80
2023-01-13T09:49:24.928Z,8.80
2023-01-13T09:52:20.902Z,8.90
2023-01-13T09:55:16.959Z,8.90
2023-01-13T09:57:43.706Z,8.90
2023-01-13T10:00:35.496Z,9.00
2023-01-13T10:03:29.667Z,9.00
2023-01-13T10:06:13.471Z,9.10
2023-01-13T10:08:41.799Z,9.10
2023-01-13T10:11:37.153Z,9.10
2023-01-13T10:14:20.263Z,9.20
2023-01-13T10:17:17.877Z,9.20
2023-01-13T10:20:00.346Z,9.20
2023-01-13T10:22:38.872Z,9.30
2023-01-13T10:25:38.696Z,9.30
2023-01-13T10:28:10.714Z,9.30
2023-01-13T10:30:40.273Z,9.40
2023-01-13T10:33:17.819Z,9.40
2023-01-13T10:35:53.587Z,9.40
2023-01-13T10:38:27.348Z,9.50
2023-01-13T10:40:58.246Z,9.50
2023-01-13T10:43:25.304Z,9.60
2023-01-13T10:46:06.520Z,9.60
2023-01-13T10:48:41.740Z,9.70
2023-01-13T10:51:20.579Z,9.80
2023-01-13T10:53:50.527Z,9.90
2023-01-13T10:56:19.127Z,9.80
2023-01-13T10:58:45.839Z,9.80
2023-01-13T11:01:26.567Z,9.80
2023-01-13T11:03:54.224Z,9.80
2023-01-13T11:06:29.692Z,9.80
2023-01-13T11:08:58.405Z,9.80
2023-01-13T11:11:42.665Z,9.90
2023-01-13T11:14:41.800Z,9.90
2023-01-13T11:17:27.756Z,9.90
2023-01-13T11:20:07.249Z,9.90
2023-01-13T11:22:55.669Z,10.00
2023-01-13T11:25:32.630Z,10.00
2023-01-13T11:28:26.863Z,10.10
2023-01-13T11:30:56.905Z,10.10
2023-01-13T11:33:41.887Z,10.20
2023-01-13T11:36:26.167Z,10.30
2023-01-13T11:38:54.724Z,10.40
2023-01-13T11:42:13.629Z,10.40
2023-01-13T11:44:43.604Z,10.40
2023-01-13T11:47:11.088Z,10.50
2023-01-13T11:49:38.983Z,10.50
2023-01-13T11:52:14.991Z,10.50
2023-01-13T11:55:05.990Z,10.60
2023-01-13T11:57:48.212Z,10.70
2023-01-13T12:00:20.830Z,10.70
2023-01-13T12:03:23.372Z,10.70
2023-01-13T12:06:07.443Z,10.80
2023-01-13T12:08:52.430Z,10.80
2023-01-13T12:11:24.768Z,10.90
2023-01-13T12:14:15.617Z,10.90
2023-01-13T12:16:49.515Z,10.90
2023-01-13T12:19:25.186Z,10.90
2023-01-13T12:22:04.049Z,11.00
2023-01-13T12:24:33.888Z,11.10
2023-01-13T12:27:27.017Z,11.00
2023-01-13T12:29:55.600Z,11.10
2023-01-13T12:32:26.589Z,11.20
2023-01-13T12:35:23.062Z,11.30
2023-01-13T12:37:55.272Z,11.30
2023-01-13T12:40:41.683Z,11.30
2023-01-13T12:43:37.500Z,11.40
2023-01-13T12:46:19.478Z,11.50
2023-01-13T12:49:00.799Z,11.50
2023-01-13T12:51:28.488Z,11.60
2023-01-13T12:53:56.291Z,11.60
2023-01-13T12:56:42.252Z,11.60
2023-01-13T12:59:15.043Z,11.70
2023-01-13T13:01:41.773Z,11.80
2023-01-13T13:04:09.542Z,11.90
2023-01-13T13:06:37.398Z,12.00
2023-01-13T13:09:05.578Z,12.00
2023-01-13T13:11:58.120Z,11.90
2023-01-13T13:14:39.899Z,11.90
2023-01-13T13:17:28.648Z,11.90
2023-01-13T13:19:56.239Z,11.90
2023-01-13T13:22:38.314Z,11.90
2023-01-13T13:25:05.041Z,11.90
2023-01-13T13:27:31.743Z,11.90
2023-01-13T13:30:02.183Z,11.80
2023-01-13T13:33:06.563Z,11.70
2023-01-13T13:35:45.050Z,11.70
2023-01-13T13:38:42.944Z,11.60
2023-01-13T13:41:39.425Z,11.70
2023-01-13T13:44:37.629Z,11.70
2023-01-13T13:47:06.372Z,11.60
2023-01-13T13:49:45.892Z,11.80
2023-01-13T13:52:15.450Z,11.90
2023-01-13T13:54:47.949Z,12.00
2023-01-13T13:57:23.283Z,11.90
2023-01-13T13:59:54.028Z,11.60
2023-01-13T14:02:30.068Z,11.40
2023-01-13T14:05:18.015Z,11.40
2023-01-13T14:07:49.520Z,11.30
2023-01-13T14:10:21.210Z,11.30
2023-01-13T14:12:47.953Z,11.20
2023-01-13T14:15:31.671Z,11.10
2023-01-13T14:18:03.378Z,11.00
2023-01-13T14:20:30.374Z,11.10
2023-01-13T14:23:01.684Z,11.10
2023-01-13T14:25:41.863Z,11.20
2023-01-13T14:28:32.436Z,11.20
2023-01-13T14:30:59.424Z,11.10
2023-01-13T14:33:41.564Z,11.20
2023-01-13T14:36:17.752Z,11.20
2023-01-13T14:38:47.179Z,11.30
2023-01-13T14:41:22.849Z,11.40
2023-01-13T14:43:50.242Z,11.40
2023-01-13T14:46:17.784Z,11.40
2023-01-13T14:48:47.202Z,11.30
2023-01-13T14:51:20.951Z,11.20
2023-01-13T14:53:47.720Z,11.20
2023-01-13T14:56:33.142Z,11.10
2023-01-13T14:59:22.893Z,11.10
2023-01-13T15:01:49.765Z,11.10
2023-01-13T15:04:18.120Z,11.10
2023-01-13T15:06:48.079Z,11.10
2023-01-13T15:09:17.694Z,11.20
2023-01-13T15:11:44.433Z,11.20
2023-01-13T15:14:11.381Z,11.20
2023-01-13T15:16:38.100Z,11.10
2023-01-13T15:19:04.902Z,11.10
2023-01-13T15:21:31.630Z,11.00
2023-01-13T15:23:58.550Z,10.90
2023-01-13T15:26:26.890Z,10.80
2023-01-13T15:28:55.515Z,10.70
2023-01-13T15:31:22.514Z,10.60
2023-01-13T15:33:49.332Z,10.50
2023-01-13T15:36:26.656Z,10.50
2023-01-13T15:38:53.461Z,10.40
2023-01-13T15:41:40.122Z,10.30
2023-01-13T15:44:25.163Z,10.20
2023-01-13T15:46:54.516Z,10.20
2023-01-13T15:49:35.329Z,10.10
2023-01-13T15:52:04.297Z,10.00
2023-01-13T15:54:31.176Z,10.00
2023-01-13T15:56:57.956Z,10.00
2023-01-13T15:59:26.399Z,10.00
2023-01-13T16:01:53.082Z,9.90
2023-01-13T16:04:19.829Z,9.90
2023-01-13T16:06:47.602Z,9.90
2023-01-13T16:09:14.551Z,9.80
2023-01-13T16:11:41.311Z,9.90
2023-01-13T16:14:08.042Z,9.80
2023-01-13T16:16:34.796Z,9.80
2023-01-13T16:19:01.555Z,9.70
2023-01-13T16:21:28.328Z,9.70
2023-01-13T16:23:55.054Z,9.60
2023-01-13T16:26:23.779Z,9.60
2023-01-13T16:28:51.305Z,9.60
2023-01-13T16:31:26.642Z,9.60
2023-01-13T16:33:53.789Z,9.60
2023-01-13T16:36:20.877Z,9.60
2023-01-13T16:38:48.265Z,9.50
2023-01-13T16:41:15.111Z,9.40
2023-01-13T16:43:41.888Z,9.40
2023-01-13T16:46:19.118Z,9.40
2023-01-13T16:48:46.206Z,9.30
2023-01-13T16:51:12.914Z,9.30
2023-01-13T16:53:39.732Z,9.30
2023-01-13T16:56:26.806Z,9.30
2023-01-13T16:58:55.495Z,9.30
2023-01-13T17:01:26.054Z,9.30
2023-01-13T17:03:53.177Z,9.30
2023-01-13T17:06:27.981Z,9.30
2023-01-13T17:08:54.763Z,9.30
2023-01-13T17:11:22.009Z,9.30
2023-01-13T17:13:48.804Z,9.30
2023-01-13T17:16:21.004Z,9.20
2023-01-13T17:18:48.325Z,9.20
2023-01-13T17:21:15.572Z,9.20
2023-01-13T17:23:42.383Z,9.10
2023-01-13T17:26:29.047Z,9.20
2023-01-13T17:28:55.850Z,9.10
2023-01-13T17:31:22.627Z,9.10
2023-01-13T17:33:49.401Z,9.10
2023-01-13T17:36:16.056Z,9.00
2023-01-13T17:38:42.721Z,9.00
2023-01-13T17:41:09.546Z,8.90
2023-01-13T17:43:36.290Z,8.80
2023-01-13T17:46:06.884Z,8.80
2023-01-13T17:48:34.352Z,8.70
2023-01-13T17:51:01.251Z,8.70
2023-01-13T17:53:30.659Z,8.70
2023-01-13T17:55:57.770Z,8.60
2023-01-13T17:58:24.599Z,8.60
2023-01-13T18:00:51.305Z,8.50
2023-01-13T18:03:18.011Z,8.50
2023-01-13T18:05:46.938Z,8.40
2023-01-13T18:08:13.698Z,8.40
2023-01-13T18:10:40.451Z,8.40
2023-01-13T18:13:07.348Z,8.50
2023-01-13T18:15:34.204Z,8.50
2023-01-13T18:18:01.040Z,8.50
2023-01-13T18:20:46.310Z,8.50
2023-01-13T18:23:38.843Z,8.40
2023-01-13T18:26:34.693Z,8.40
2023-01-13T18:29:01.925Z,8.40
2023-01-13T18:31:28.659Z,8.40
2023-01-13T18:33:55.302Z,8.30
2023-01-13T18:36:22.105Z,8.30
2023-01-13T18:38:49.873Z,8.20
2023-01-13T18:41:35.369Z,8.20
2023-01-13T18:44:02.080Z,8.10
2023-01-13T18:46:28.889Z,8.10
2023-01-13T18:48:55.691Z,8.10
2023-01-13T18:51:22.405Z,8.00
2023-01-13T18:53:49.175Z,8.00
2023-01-13T18:56:16.028Z,8.00
2023-01-13T18:58:52.099Z,7.90
2023-01-13T19:01:22.487Z,7.90
2023-01-13T19:04:00.777Z,7.80
2023-01-13T19:06:29.606Z,7.80
2023-01-13T19:09:08.231Z,7.80
2023-01-13T19:11:36.096Z,7.80
2023-01-13T19:14:03.165Z,7.80
2023-01-13T19:16:29.861Z,7.80
2023-01-13T19:18:56.554Z,7.80
2023-01-13T19:21:24.736Z,7.70
2023-01-13T19:23:55.648Z,7.70
2023-01-13T19:26:22.435Z,7.60
2023-01-13T19:28:50.414Z,7.60
2023-01-13T19:31:20.293Z,7.60
2023-01-13T19:33:47.166Z,7.60
2023-01-13T19:36:13.843Z,7.60
2023-01-13T19:38:40.534Z,7.60
2023-01-13T19:41:27.461Z,7.60
2023-01-13T19:44:13.819Z,7.60
2023-01-13T19:46:41.434Z,7.60
2023-01-13T19:49:08.266Z,7.60
2023-01-13T19:51:35.072Z,7.60
2023-01-13T19:54:01.907Z,7.60
2023-01-13T19:56:29.495Z,7.60
2023-01-13T19:58:56.768Z,7.60
2023-01-13T20:01:30.265Z,7.60
2023-01-13T20:04:02.775Z,7.70
2023-01-13T20:06:31.566Z,7.60
2023-01-13T20:08:58.491Z,7.60
2023-01-13T20:11:31.138Z,7.60
2023-01-13T20:13:58.695Z,7.50
2023-01-13T20:16:26.025Z,7.50
2023-01-13T20:18:52.808Z,7.50
2023-01-13T20:21:19.551Z,7.50
2023-01-13T20:23:49.433Z,7.50
2023-01-13T20:26:16.202Z,7.50
2023-01-13T20:28:42.924Z,7.40
2023-01-13T20:31:10.903Z,7.40
2023-01-13T20:33:38.851Z,7.30
2023-01-13T20:36:06.115Z,7.30
2023-01-13T20:38:38.584Z,7.20
2023-01-13T20:41:26.259Z,7.10
2023-01-13T20:43:53.070Z,7.10
2023-01-13T20:46:20.104Z,7.00
2023-01-13T20:48:46.972Z,7.00
2023-01-13T20:51:13.715Z,7.00
2023-01-13T20:53:41.082Z,7.00
2023-01-13T20:56:08.637Z,6.90
2023-01-13T20:58:37.423Z,6.90
2023-01-13T21:01:04.624Z,6.90
2023-01-13T21:03:31.672Z,6.90
2023-01-13T21:05:58.534Z,6.80
2023-01-13T21:08:25.352Z,6.80
2023-01-13T21:10:52.043Z,6.80
2023-01-13T21:13:37.613Z,6.80
2023-01-13T21:16:04.800Z,6.80
2023-01-13T21:18:50.051Z,6.80
2023-01-13T21:21:16.847Z,6.80
2023-01-13T21:23:44.435Z,6.80
2023-01-13T21:26:12.053Z,6.80
2023-01-13T21:28:38.886Z,6.80
2023-01-13T21:31:06.870Z,6.80
2023-01-13T21:33:33.605Z,6.70
2023-01-13T21:36:07.608Z,6.70
2023-01-13T21:38:34.550Z,6.70
2023-01-13T21:41:02.849Z,6.70
2023-01-13T21:43:48.256Z,6.70
2023-01-13T21:46:33.888Z,6.60
2023-01-13T21:49:00.751Z,6.60
2023-01-13T21:51:27.994Z,6.60
2023-01-13T21:53:55.292Z,6.60
2023-01-13T21:56:22.135Z,6.60
2023-01-13T21:58:49.047Z,6.60
2023-01-13T22:01:16.729Z,6.60
2023-01-13T22:04:01.974Z,6.60
2023-01-13T22:06:29.009Z,6.60
2023-01-13T22:08:56.402Z,6.60
2023-01-13T22:11:23.151Z,6.60
2023-01-13T22:14:08.661Z,6.60
2023-01-13T22:16:41.686Z,6.60
2023-01-13T22:19:09.276Z,6.70
2023-01-13T22:21:36.299Z,6.70
2023-01-13T22:24:03.034Z,6.70
2023-01-13T22:26:29.762Z,6.70
2023-01-13T22:28:56.983Z,6.80
2023-01-13T22:31:24.299Z,6.70
2023-01-13T22:33:57.123Z,6.70
2023-01-13T22:36:24.243Z,6.80
2023-01-13T22:38:55.911Z,6.80
2023-01-13T22:41:22.725Z,6.90
2023-01-13T22:43:49.450Z,6.90
2023-01-13T22:46:17.132Z,6.90
2023-01-13T22:48:44.046Z,6.90
2023-01-13T22:51:12.179Z,6.90
2023-01-13T22:53:39.010Z,7.00
2023-01-13T22:56:06.310Z,7.00
2023-01-13T22:58:33.023Z,7.00
2023-01-13T23:01:17.589Z,7.10
2023-01-13T23:03:47.707Z,7.10
2023-01-13T23:06:14.683Z,7.10
2023-01-13T23:08:41.500Z,7.20
2023-01-13T23:11:09.513Z,7.20
2023-01-13T23:13:37.964Z,7.30
2023-01-13T23:16:06.202Z,7.30
2023-01-13T23:18:33.480Z,7.30
2023-01-13T23:21:07.796Z,7.40
2023-01-13T23:23:34.891Z,7.40
2023-01-13T23:26:02.343Z,7.40
2023-01-13T23:28:29.335Z,7.40
2023-01-13T23:30:56.145Z,7.40
2023-01-13T23:33:23.024Z,7.50
2023-01-13T23:36:00.633Z,7.50
2023-01-13T23:38:28.000Z,7.50
2023-01-13T23:40:54.676Z,7.60
2023-01-13T23:43:21.841Z,7.60
2023-01-13T23:45:48.714Z,7.60
2023-01-13T23:48:15.647Z,7.70
2023-01-13T23:50:42.487Z,7.70
2023-01-13T23:53:09.425Z,7.70
2023-01-13T23:55:36.271Z,7.80
2023-01-13T23:58:03.045Z,7.80
